createdAt,value
2022-08-07T00:01:12.609Z,19.52
2022-08-07T00:03:55.041Z,19.43
2022-08-07T00:06:32.977Z,19.34
2022-08-07T00:09:16.930Z,19.14
2022-08-07T00:11:55.252Z,19.03
2022-08-07T00:14:25.462Z,19.05
2022-08-07T00:16:53.116Z,19.03
2022-08-07T00:19:21.591Z,18.91
2022-08-07T00:21:56.246Z,18.65
2022-08-07T00:24:24.636Z,18.63
2022-08-07T00:27:06.348Z,17.96
2022-08-07T00:29:37.215Z,17.85
2022-08-07T00:32:06.816Z,17.77
2022-08-07T00:34:35.628Z,17.76
2022-08-07T00:37:53.851Z,17.79
2022-08-07T00:40:36.388Z,17.90
2022-08-07T00:43:09.875Z,17.99
2022-08-07T00:45:41.267Z,18.00
2022-08-07T00:48:13.852Z,17.94
2022-08-07T00:50:46.525Z,17.77
2022-08-07T00:53:20.157Z,17.74
2022-08-07T00:56:02.206Z,17.75
2022-08-07T00:58:31.010Z,17.55
2022-08-07T01:00:59.955Z,17.58
2022-08-07T01:03:57.062Z,17.46
2022-08-07T01:06:15.735Z,17.40
2022-08-07T01:08:53.600Z,17.46
2022-08-07T01:12:08.934Z,17.50
2022-08-07T01:14:11.087Z,17.42
2022-08-07T01:16:42.966Z,17.41
2022-08-07T01:19:18.483Z,17.43
2022-08-07T01:21:53.307Z,17.49
2022-08-07T01:24:28.532Z,17.58
2022-08-07T01:27:03.196Z,17.64
2022-08-07T01:29:33.741Z,17.81
2022-08-07T01:32:11.912Z,17.95
2022-08-07T01:34:42.770Z,18.03
2022-08-07T01:37:17.478Z,18.12
2022-08-07T01:39:48.511Z,18.16
2022-08-07T01:42:39.772Z,17.62
2022-08-07T01:45:17.823Z,17.55
2022-08-07T01:48:19.745Z,17.48
2022-08-07T01:50:40.381Z,17.58
2022-08-07T01:53:21.556Z,17.60
2022-08-07T01:56:00.959Z,17.59
2022-08-07T01:58:40.850Z,17.70
2022-08-07T02:01:25.587Z,17.76
2022-08-07T02:04:12.115Z,17.80
2022-08-07T02:06:45.916Z,17.86
2022-08-07T02:09:51.713Z,17.82
2022-08-07T02:12:13.878Z,17.69
2022-08-07T02:14:57.071Z,17.55
2022-08-07T02:17:40.827Z,17.58
2022-08-07T02:20:23.425Z,17.44
2022-08-07T02:22:55.832Z,17.50
2022-08-07T02:25:47.219Z,17.46
2022-08-07T02:28:25.454Z,17.51
2022-08-07T02:31:18.975Z,17.54
2022-08-07T02:34:03.446Z,17.48
2022-08-07T02:36:39.239Z,17.53
2022-08-07T02:39:17.271Z,17.46
2022-08-07T02:42:10.042Z,17.34
2022-08-07T02:44:48.954Z,17.37
2022-08-07T02:47:45.185Z,17.36
2022-08-07T02:50:14.440Z,17.28
2022-08-07T02:52:48.870Z,17.25
2022-08-07T02:55:28.615Z,17.22
2022-08-07T02:58:21.632Z,17.19
2022-08-07T03:00:55.388Z,17.14
2022-08-07T03:03:29.467Z,17.24
2022-08-07T03:06:16.487Z,17.25
2022-08-07T03:08:46.430Z,17.27
2022-08-07T03:11:14.918Z,17.27
2022-08-07T03:13:49.938Z,17.23
2022-08-07T03:16:22.977Z,17.24
2022-08-07T03:18:59.186Z,17.27
2022-08-07T03:21:28.071Z,17.26
2022-08-07T03:24:20.859Z,17.25
2022-08-07T03:26:58.374Z,17.20
2022-08-07T03:29:37.751Z,17.21
2022-08-07T03:32:13.711Z,17.19
2022-08-07T03:35:00.870Z,17.09
2022-08-07T03:37:46.455Z,17.01
2022-08-07T03:40:31.144Z,16.98
2022-08-07T03:43:10.081Z,17.05
2022-08-07T03:45:48.635Z,17.08
2022-08-07T03:48:20.734Z,16.90
2022-08-07T03:50:56.107Z,16.78
2022-08-07T03:54:05.551Z,16.74
2022-08-07T03:56:32.731Z,16.81
2022-08-07T03:59:09.151Z,16.79
2022-08-07T04:01:45.501Z,16.74
2022-08-07T04:04:17.578Z,16.52
2022-08-07T04:06:51.016Z,16.55
2022-08-07T04:09:23.078Z,16.47
2022-08-07T04:12:27.317Z,16.17
2022-08-07T04:14:46.308Z,16.10
2022-08-07T04:17:21.852Z,15.83
2022-08-07T04:19:55.634Z,15.93
2022-08-07T04:22:29.163Z,15.96
2022-08-07T04:25:02.313Z,16.15
2022-08-07T04:27:35.717Z,16.41
2022-08-07T04:30:20.942Z,16.70
2022-08-07T04:33:07.595Z,16.90
2022-08-07T04:35:39.086Z,17.08
2022-08-07T04:38:13.350Z,17.28
2022-08-07T04:45:58.147Z,18.12
2022-08-07T04:48:21.664Z,18.47
2022-08-07T04:51:00.739Z,18.82
2022-08-07T04:54:06.422Z,18.68
2022-08-07T04:58:10.695Z,19.46
2022-08-07T05:00:11.564Z,20.22
2022-08-07T05:02:29.534Z,21.00
2022-08-07T05:05:11.403Z,21.66
2022-08-07T05:08:02.715Z,22.23
2022-08-07T05:10:41.627Z,22.99
2022-08-07T05:14:54.376Z,23.12
2022-08-07T05:16:14.411Z,23.53
2022-08-07T05:18:51.168Z,24.15
2022-08-07T05:21:59.212Z,24.70
2022-08-07T05:24:17.953Z,25.03
2022-08-07T05:26:51.070Z,25.66
2022-08-07T05:29:22.459Z,26.28
2022-08-07T05:31:53.035Z,26.26
2022-08-07T05:34:28.206Z,27.07
2022-08-07T05:36:58.640Z,27.55
2022-08-07T05:40:05.988Z,28.00
2022-08-07T05:42:34.404Z,28.69
2022-08-07T05:45:14.650Z,28.83
2022-08-07T05:48:01.218Z,29.16
2022-08-07T05:50:31.006Z,29.27
2022-08-07T05:53:00.235Z,29.62
2022-08-07T05:56:02.234Z,29.62
2022-08-07T05:58:22.079Z,30.18
2022-08-07T06:01:09.211Z,30.50
2022-08-07T06:03:57.298Z,30.95
2022-08-07T06:06:35.064Z,31.27
2022-08-07T06:09:08.635Z,31.22
2022-08-07T06:11:41.962Z,31.51
2022-08-07T06:14:20.852Z,32.23
2022-08-07T06:16:57.316Z,32.61
2022-08-07T06:19:47.937Z,33.15
2022-08-07T06:22:23.962Z,33.51
2022-08-07T06:25:10.154Z,33.52
2022-08-07T06:27:59.597Z,33.62
2022-08-07T06:30:36.045Z,33.61
2022-08-07T06:33:22.749Z,33.93
2022-08-07T06:36:11.956Z,34.25
2022-08-07T06:40:16.506Z,34.73
2022-08-07T06:42:04.267Z,34.10
2022-08-07T06:44:56.718Z,35.03
2022-08-07T06:47:24.755Z,35.10
2022-08-07T06:50:00.112Z,35.09
2022-08-07T06:52:46.426Z,35.17
2022-08-07T06:55:53.584Z,35.46
2022-08-07T06:58:21.570Z,35.87
2022-08-07T07:01:15.388Z,36.11
2022-08-07T07:03:48.261Z,35.57
2022-08-07T07:06:23.980Z,35.68
2022-08-07T07:08:58.231Z,35.84
2022-08-07T07:12:09.066Z,35.82
2022-08-07T07:14:22.492Z,36.28
2022-08-07T07:17:05.322Z,36.83
2022-08-07T07:19:57.837Z,37.09
2022-08-07T07:22:36.908Z,36.40
2022-08-07T07:26:35.471Z,35.77
2022-08-07T07:28:42.249Z,36.34
2022-08-07T07:31:26.959Z,35.37
2022-08-07T07:34:15.726Z,36.30
2022-08-07T07:36:54.051Z,36.38
2022-08-07T07:39:25.977Z,36.34
2022-08-07T07:42:19.957Z,36.90
2022-08-07T07:44:59.165Z,36.30
2022-08-07T07:47:52.081Z,35.17
2022-08-07T07:50:40.553Z,36.26
2022-08-07T07:53:20.578Z,34.94
2022-08-07T07:56:01.044Z,35.44
2022-08-07T07:58:40.339Z,35.83
2022-08-07T08:02:02.263Z,35.71
2022-08-07T08:04:09.798Z,35.69
2022-08-07T08:06:50.943Z,35.47
2022-08-07T08:09:29.678Z,35.54
2022-08-07T08:12:02.157Z,35.32
2022-08-07T08:14:31.681Z,35.06
2022-08-07T08:17:32.462Z,34.73
2022-08-07T08:20:22.423Z,33.58
2022-08-07T08:22:58.227Z,33.20
2022-08-07T08:25:42.344Z,32.84
2022-08-07T08:28:37.697Z,32.73
2022-08-07T08:31:15.894Z,32.59
2022-08-07T08:33:49.764Z,32.48
2022-08-07T08:36:56.277Z,31.45
2022-08-07T08:39:38.923Z,31.38
2022-08-07T08:42:29.875Z,31.46
2022-08-07T08:45:13.901Z,31.52
2022-08-07T08:47:57.361Z,31.55
2022-08-07T08:50:40.054Z,30.81
2022-08-07T08:53:22.229Z,29.10
2022-08-07T08:55:58.854Z,28.58
2022-08-07T08:58:36.248Z,28.06
2022-08-07T09:01:14.706Z,27.32
2022-08-07T09:03:55.928Z,26.95
2022-08-07T09:06:42.610Z,27.95
2022-08-07T09:09:36.534Z,28.13
2022-08-07T09:12:30.998Z,26.79
2022-08-07T09:16:22.881Z,25.20
2022-08-07T09:18:58.630Z,25.27
2022-08-07T09:22:10.367Z,25.53
2022-08-07T09:24:58.949Z,25.29
2022-08-07T09:27:59.627Z,25.52
2022-08-07T09:30:54.743Z,25.33
2022-08-07T09:33:56.896Z,24.99
2022-08-07T09:36:36.950Z,25.44
2022-08-07T09:39:55.207Z,24.68
2022-08-07T09:42:46.936Z,25.47
2022-08-07T09:47:52.478Z,25.95
2022-08-07T09:50:00.495Z,26.56
2022-08-07T09:52:15.331Z,26.18
2022-08-07T09:54:58.984Z,26.29
2022-08-07T09:58:14.214Z,25.63
2022-08-07T10:01:02.771Z,25.97
2022-08-07T10:04:06.115Z,26.56
2022-08-07T10:07:04.855Z,26.03
2022-08-07T10:10:23.956Z,25.57
2022-08-07T10:14:00.978Z,25.30
2022-08-07T10:17:16.622Z,25.26
2022-08-07T10:20:03.674Z,25.00
2022-08-07T10:23:03.658Z,24.94
2022-08-07T10:26:14.138Z,26.05
2022-08-07T10:29:11.554Z,25.82
2022-08-07T10:32:31.574Z,26.21
2022-08-07T10:35:53.623Z,27.74
2022-08-07T10:38:49.959Z,27.19
2022-08-07T10:41:51.501Z,28.36
2022-08-07T10:44:39.725Z,27.04
2022-08-07T10:47:51.582Z,26.80
2022-08-07T10:50:25.663Z,26.82
2022-08-07T10:53:21.705Z,27.11
2022-08-07T10:56:02.184Z,27.36
2022-08-07T10:59:01.440Z,26.63
2022-08-07T11:02:05.457Z,29.00
2022-08-07T11:05:13.782Z,27.79
2022-08-07T11:08:02.739Z,27.28
2022-08-07T11:10:40.900Z,29.26
2022-08-07T11:14:43.878Z,29.62
2022-08-07T11:16:29.718Z,30.50
2022-08-07T11:19:11.319Z,30.81
2022-08-07T11:21:50.101Z,31.68
2022-08-07T11:24:29.081Z,28.68
2022-08-07T11:27:07.433Z,27.98
2022-08-07T11:30:17.695Z,27.87
2022-08-07T11:32:56.793Z,29.13
2022-08-07T11:35:34.698Z,30.73
2022-08-07T11:38:33.262Z,28.86
2022-08-07T11:41:18.313Z,27.43
2022-08-07T11:44:12.253Z,27.10
2022-08-07T11:47:02.625Z,27.53
2022-08-07T11:50:31.545Z,27.54
2022-08-07T11:53:09.019Z,28.28
2022-08-07T11:56:27.636Z,28.05
2022-08-07T12:00:11.676Z,27.88
2022-08-07T12:02:35.980Z,28.05
2022-08-07T12:05:28.570Z,26.91
2022-08-07T12:08:25.924Z,26.48
2022-08-07T12:11:20.132Z,27.35
2022-08-07T12:14:03.581Z,27.71
2022-08-07T12:16:40.791Z,27.98
2022-08-07T12:19:21.256Z,27.74
2022-08-07T12:22:38.690Z,27.03
2022-08-07T12:25:07.861Z,26.80
2022-08-07T12:28:09.794Z,26.62
2022-08-07T12:30:41.272Z,26.97
2022-08-07T12:33:23.219Z,26.82
2022-08-07T12:36:05.687Z,26.72
2022-08-07T12:38:43.026Z,26.62
2022-08-07T12:41:13.067Z,26.55
2022-08-07T12:44:03.888Z,26.35
2022-08-07T12:46:57.686Z,26.72
2022-08-07T12:49:48.485Z,26.65
2022-08-07T12:52:36.193Z,26.54
2022-08-07T12:55:20.334Z,26.76
2022-08-07T12:58:02.018Z,27.20
2022-08-07T13:00:50.329Z,27.46
2022-08-07T13:04:02.150Z,27.62
2022-08-07T13:07:08.980Z,27.84
2022-08-07T13:10:39.484Z,27.77
2022-08-07T13:13:48.473Z,27.17
2022-08-07T13:16:29.607Z,27.61
2022-08-07T13:19:21.981Z,27.77
2022-08-07T13:22:19.855Z,27.92
2022-08-07T13:25:04.269Z,27.97
2022-08-07T13:28:11.272Z,27.99
2022-08-07T13:30:44.189Z,27.97
2022-08-07T13:34:30.354Z,27.20
2022-08-07T13:36:28.035Z,27.10
2022-08-07T13:39:05.059Z,27.48
2022-08-07T13:41:49.415Z,27.63
2022-08-07T13:44:26.029Z,27.40
2022-08-07T13:46:59.649Z,27.68
2022-08-07T13:50:33.937Z,27.65
2022-08-07T13:52:39.682Z,27.61
2022-08-07T13:55:19.273Z,27.72
2022-08-07T13:58:05.978Z,27.80
2022-08-07T14:00:54.196Z,27.79
2022-08-07T14:03:30.025Z,27.83
2022-08-07T14:06:19.699Z,27.81
2022-08-07T14:08:53.462Z,27.16
2022-08-07T14:11:22.935Z,27.15
2022-08-07T14:14:02.842Z,27.37
2022-08-07T14:16:41.888Z,27.57
2022-08-07T14:20:42.100Z,27.75
2022-08-07T14:22:34.666Z,27.30
2022-08-07T14:25:12.522Z,27.11
2022-08-07T14:28:11.358Z,27.16
2022-08-07T14:30:36.564Z,27.07
2022-08-07T14:33:10.039Z,27.16
2022-08-07T14:35:45.807Z,27.32
2022-08-07T14:38:26.509Z,27.33
2022-08-07T14:41:04.891Z,27.41
2022-08-07T14:46:32.073Z,27.22
2022-08-07T14:49:56.018Z,27.10
2022-08-07T14:52:04.403Z,27.33
2022-08-07T14:54:43.203Z,27.49
2022-08-07T15:00:06.089Z,27.71
2022-08-07T15:02:35.189Z,27.86
2022-08-07T15:05:20.626Z,27.77
2022-08-07T15:07:52.697Z,28.01
2022-08-07T15:10:29.933Z,28.01
2022-08-07T15:16:02.507Z,27.64
2022-08-07T15:18:45.270Z,27.80
2022-08-07T15:21:59.548Z,27.83
2022-08-07T15:27:09.371Z,27.65
2022-08-07T15:30:08.743Z,27.62
2022-08-07T15:32:39.125Z,27.59
2022-08-07T15:35:19.593Z,27.68
2022-08-07T15:38:30.441Z,27.70
2022-08-07T15:41:24.187Z,27.59
2022-08-07T15:44:03.501Z,27.53
2022-08-07T15:46:39.430Z,27.56
2022-08-07T15:50:05.326Z,27.63
2022-08-07T15:52:30.397Z,27.68
2022-08-07T15:55:08.698Z,27.71
2022-08-07T15:57:48.565Z,27.68
2022-08-07T16:00:31.296Z,27.76
2022-08-07T16:03:21.520Z,27.73
2022-08-07T16:06:01.320Z,27.70
2022-08-07T16:08:38.935Z,27.50
2022-08-07T16:11:27.373Z,27.56
2022-08-07T16:14:12.530Z,27.53
2022-08-07T16:17:02.360Z,27.57
2022-08-07T16:20:05.498Z,27.51
2022-08-07T16:22:55.286Z,27.42
2022-08-07T16:25:55.058Z,27.41
2022-08-07T16:30:06.346Z,27.41
2022-08-07T16:32:02.015Z,27.42
2022-08-07T16:34:45.260Z,27.47
2022-08-07T16:38:07.487Z,27.37
2022-08-07T16:41:54.649Z,27.42
2022-08-07T16:45:14.674Z,27.40
2022-08-07T16:49:04.272Z,27.37
2022-08-07T16:52:01.893Z,27.37
2022-08-07T16:54:57.947Z,27.35
2022-08-07T16:58:08.176Z,27.28
2022-08-07T17:01:02.098Z,27.14
2022-08-07T17:03:59.770Z,27.20
2022-08-07T17:06:58.015Z,27.18
2022-08-07T17:10:07.196Z,27.23
2022-08-07T17:12:47.543Z,27.21
2022-08-07T17:15:43.713Z,27.21
2022-08-07T17:18:28.128Z,27.16
2022-08-07T17:20:59.279Z,27.12
2022-08-07T17:24:03.243Z,27.09
2022-08-07T17:26:50.175Z,27.09
2022-08-07T17:30:13.969Z,26.94
2022-08-07T17:32:31.255Z,26.98
2022-08-07T17:35:50.782Z,26.94
2022-08-07T17:38:21.063Z,26.93
2022-08-07T17:42:00.849Z,26.94
2022-08-07T17:44:15.668Z,26.92
2022-08-07T17:47:08.559Z,26.75
2022-08-07T17:49:55.970Z,26.68
2022-08-07T17:52:36.740Z,26.72
2022-08-07T17:55:54.825Z,26.70
2022-08-07T17:58:35.851Z,26.62
2022-08-07T18:01:21.850Z,26.63
2022-08-07T18:04:16.762Z,26.59
2022-08-07T18:06:58.082Z,26.54
2022-08-07T18:10:07.087Z,26.51
2022-08-07T18:13:09.543Z,26.43
2022-08-07T18:15:54.602Z,26.35
2022-08-07T18:21:00.754Z,26.29
2022-08-07T18:21:42.131Z,26.28
2022-08-07T18:24:33.116Z,26.04
2022-08-07T18:27:39.046Z,26.05
2022-08-07T18:30:31.066Z,25.99
2022-08-07T18:33:54.947Z,25.99
2022-08-07T18:36:53.856Z,25.88
2022-08-07T18:40:06.344Z,25.83
2022-08-07T18:42:54.075Z,25.71
2022-08-07T18:46:21.872Z,25.67
2022-08-07T18:50:05.503Z,25.61
2022-08-07T18:52:38.826Z,25.54
2022-08-07T18:54:50.866Z,25.47
2022-08-07T18:57:58.521Z,25.40
2022-08-07T19:00:54.915Z,25.32
2022-08-07T19:03:37.962Z,25.25
2022-08-07T19:06:16.745Z,25.17
2022-08-07T19:08:58.602Z,25.09
2022-08-07T19:12:04.994Z,25.00
2022-08-07T19:14:52.244Z,24.93
2022-08-07T19:17:59.101Z,24.87
2022-08-07T19:21:09.589Z,24.82
2022-08-07T19:30:53.559Z,24.65
2022-08-07T19:31:37.429Z,24.63
2022-08-07T19:34:00.466Z,24.58
2022-08-07T19:36:39.095Z,24.50
2022-08-07T19:39:09.511Z,24.41
2022-08-07T19:42:08.036Z,24.38
2022-08-07T19:44:37.789Z,24.31
2022-08-07T19:47:16.206Z,24.30
2022-08-07T19:49:58.431Z,24.23
2022-08-07T19:52:31.705Z,24.13
2022-08-07T19:55:00.094Z,24.14
2022-08-07T19:58:03.260Z,23.86
2022-08-07T20:00:29.917Z,23.79
2022-08-07T20:03:34.646Z,23.72
2022-08-07T20:06:05.061Z,23.61
2022-08-07T20:08:37.607Z,23.55
2022-08-07T20:11:12.263Z,23.46
2022-08-07T20:13:49.825Z,23.45
2022-08-07T20:16:35.073Z,23.41
2022-08-07T20:19:10.540Z,23.36
2022-08-07T20:21:47.411Z,23.33
2022-08-07T20:24:22.544Z,23.27
2022-08-07T20:26:55.878Z,23.25
2022-08-07T20:29:47.873Z,23.20
2022-08-07T20:32:22.963Z,23.03
2022-08-07T20:35:02.674Z,22.97
2022-08-07T20:37:55.748Z,22.95
2022-08-07T20:40:32.338Z,22.90
2022-08-07T20:43:14.816Z,22.90
2022-08-07T20:46:25.793Z,22.83
2022-08-07T20:49:55.130Z,22.69
2022-08-07T20:51:35.831Z,22.64
2022-08-07T20:54:07.196Z,22.58
2022-08-07T20:56:41.567Z,22.43
2022-08-07T21:00:04.484Z,22.17
2022-08-07T21:02:27.671Z,22.05
2022-08-07T21:04:55.587Z,21.99
2022-08-07T21:07:28.196Z,21.94
2022-08-07T21:09:59.032Z,21.91
2022-08-07T21:12:31.632Z,21.77
2022-08-07T21:15:05.243Z,21.70
2022-08-07T21:18:04.070Z,21.63
2022-08-07T21:20:30.363Z,21.54
2022-08-07T21:23:15.412Z,21.49
2022-08-07T21:26:06.550Z,21.42
2022-08-07T21:28:48.941Z,21.15
2022-08-07T21:31:49.877Z,20.57
2022-08-07T21:34:31.862Z,20.31
2022-08-07T21:37:18.386Z,20.30
2022-08-07T21:39:56.534Z,20.08
2022-08-07T21:42:46.708Z,20.04
2022-08-07T21:46:07.655Z,19.90
2022-08-07T21:48:28.818Z,19.74
2022-08-07T21:51:19.283Z,19.66
2022-08-07T21:53:53.082Z,19.58
2022-08-07T21:56:47.098Z,19.60
2022-08-07T22:00:02.908Z,19.64
2022-08-07T22:02:34.276Z,19.63
2022-08-07T22:05:07.169Z,19.54
2022-08-07T22:07:58.342Z,19.42
2022-08-07T22:10:32.843Z,19.44
2022-08-07T22:13:09.350Z,19.38
2022-08-07T22:16:42.409Z,19.35
2022-08-07T22:18:43.531Z,19.31
2022-08-07T22:21:19.337Z,19.27
2022-08-07T22:23:54.969Z,19.15
2022-08-07T22:26:29.001Z,19.19
2022-08-07T22:29:13.760Z,19.21
2022-08-07T22:31:59.969Z,19.29
2022-08-07T22:34:53.050Z,19.16
2022-08-07T22:38:04.189Z,19.17
2022-08-07T22:40:32.986Z,19.19
2022-08-07T22:43:09.414Z,19.24
2022-08-07T22:46:46.823Z,19.19
2022-08-07T22:49:51.847Z,19.18
2022-08-07T22:53:03.461Z,19.17
2022-08-07T22:55:42.697Z,19.21
2022-08-07T22:58:37.753Z,19.23
2022-08-07T23:01:50.223Z,19.12
2022-08-07T23:04:56.916Z,19.18
2022-08-07T23:07:47.036Z,19.25
2022-08-07T23:10:41.961Z,19.28
2022-08-07T23:14:10.541Z,19.31
2022-08-07T23:17:03.059Z,19.36
2022-08-07T23:19:51.625Z,19.42
2022-08-07T23:22:39.206Z,19.41
2022-08-07T23:25:29.711Z,19.31
2022-08-07T23:28:29.105Z,19.29
2022-08-07T23:31:18.573Z,19.32
2022-08-07T23:34:43.923Z,19.34
2022-08-07T23:38:01.127Z,19.33
2022-08-07T23:40:49.199Z,19.29
2022-08-07T23:44:00.738Z,19.11
2022-08-07T23:46:56.289Z,19.07
2022-08-07T23:50:02.503Z,19.04
2022-08-07T23:52:58.253Z,19.05
2022-08-07T23:55:52.987Z,19.01
2022-08-07T23:58:37.511Z,19.00
